Lumi/Jää/Keli Alkaa: 08-12-2019 20:00 Päättyy: 09-12-2019 12:51 Varoitus: Lumi/Jää/Keli Taso: Keltainen info button
suomi:
Liikennesää: Ajokeli muuttuu huonoksi illasta alkaen lumi- tai räntäsateen vuoksi.

svenska:
Trafikvädret: Väglaget blir dåligt från och med kvällen p.g.a. snöfall eller snöblandat regn.

english:
Traffic weather warning: Bad road conditions are expected from the evening on because of snow or sleet. 


Webkamera Lisätietoa Webcam


Varoitus: Lumi/Jää Lisätietoa

rain snow radar


Yksityisiä sääasemia lähellä:

Sääasema Juupajoki

Sääasema Orivesi

Sääasema Muurame

Sääasema Jyväskylä

Sääasema Vihtavuori


Löydät sääaseman tiedot myös:

Finland Weather Exchange

European Weather Network

Weather Underground

AWEKAS

Windy.com



Säätiedot lähimmiltä METAR asemilta

   
EFHA - Halli (Fin-Afb), Finland
Etäisyys asemalta: Kaakko 25 km
Päivitetty: 08.12.2019 07:50
Pilvistä  
Pilvistä  
   Tuuli: Länsi 6.2 m/s
Tuuli: Länsi 6.2 m/s
Lämpötila: 0°C
Tuulen hyytävyys: -6°C
Kastepiste: -1°C
Kosteus: 93%
Ilmanpaine: 983 hPa
Pilvisyys: Pilvistä
Näkyvyys: Enemmän kuin 10 km
Pilvitiedot: Pilvistä 366 m
EFHA 080550Z AUTO 28012KT 9999 OVC012 00/M01 Q0983
EFJY - Jyvaskyla (Mil/Civ), Finland
Etäisyys asemalta: Koillinen 75 km
Päivitetty: 08.12.2019 07:50
Melkein pilvistä  
Melkein pilvistä  
   Tuuli: Länsi 5.7 m/s
Tuuli: Länsi 5.7 m/s
Lämpötila: -1°C
Tuulen hyytävyys: -7°C
Kastepiste: -2°C
Kosteus: 93%
Ilmanpaine: 981 hPa
Pilvisyys: Melkein pilvistä
Näkyvyys: Enemmän kuin 10 km
Pilvitiedot: Melkein pilvistä 274 m
EFJY 080550Z AUTO 26011KT 230V290 9999 BKN009 M01/M02 Q0981
EFTP - Tampere/Pirkkala, Finland
Etäisyys asemalta: Lounas 81 km
Päivitetty: 08.12.2019 07:50
Pilvistä  
Pilvistä  
   Tuuli: Länsilounas 5.7 m/s
Tuuli: Länsilounas 5.7 m/s
Lämpötila: 1°C
Tuulen hyytävyys: -4°C
Kastepiste: -1°C
Kosteus: 87%
Ilmanpaine: 985 hPa
Pilvisyys: Pilvistä
Näkyvyys: Enemmän kuin 10 km
Pilvitiedot: Pilvistä 427 m
EFTP 080550Z AUTO 25011KT 9999 OVC014 01/M01 Q0985
EFSI - Seinajoki-Ilmajoki, Finland
Etäisyys asemalta: Luode 114 km
Päivitetty: 08.12.2019 07:50
Selkeää  
Selkeää  
   Tuuli: Länsilounas 1.5 m/s
Tuuli: Länsilounas 1.5 m/s
Lämpötila: -2°C
Tuulen hyytävyys: -4°C
Kastepiste: -3°C
Kosteus: 93%
Ilmanpaine: 982 hPa
Näkyvyys: Enemmän kuin 10 km
Pilvitiedot: Selkeää
EFSI 080550Z AUTO 25003KT CAVOK M02/M03 Q0982
EFMI - Mikkeli, Finland
Etäisyys asemalta: Itäkaakko 147 km
Päivitetty: 08.12.2019 07:50
Heikkoa sadetta, Lumisadetta, Melkein pilvistä  
Heikkoa sadetta, Lumisadetta, Melkein pilvistä  
   Tuuli: Länsi 6.2 m/s
Tuuli: Länsi 6.2 m/s
Lämpötila: 0°C
Tuulen hyytävyys: -6°C
Kastepiste: -1°C
Kosteus: 93%
Ilmanpaine: 982 hPa
Pilvisyys: Melkein pilvistä
Näkyvyys: 5 km
Pilvitiedot: Melkein pilvistä 305 m
EFMI 080550Z AUTO 26012KT 4500 -RASN BKN010 00/M01 Q0982
EFPO - Pori (Mil/Civ), Finland
Etäisyys asemalta: Länsilounas 154 km
Päivitetty: 08.12.2019 07:50
Vähäistä pilvisyyttä  
Vähäistä pilvisyyttä  
   Tuuli: Länsi 3.6 m/s
Tuuli: Länsi 3.6 m/s
Lämpötila: 1°C
Tuulen hyytävyys: -3°C
Kastepiste: -2°C
Kosteus: 81%
Ilmanpaine: 986 hPa
Pilvisyys: Vähäistä pilvisyyttä
Näkyvyys: Enemmän kuin 10 km
Pilvitiedot: Vähäistä pilvisyyttä 610 m
EFPO 080550Z AUTO 26007KT 9999 FEW020 01/M02 Q0986
EFUT - Utti (Fin-Afb), Finland
Etäisyys asemalta: Kaakko 180 km
Päivitetty: 08.12.2019 07:50
Melkein pilvistä  
Melkein pilvistä  
   Tuuli: Länsi 4.6 m/s
Tuuli: Länsi 4.6 m/s
Lämpötila: 0°C
Tuulen hyytävyys: -4°C
Kastepiste: -1°C
Kosteus: 93%
Ilmanpaine: 984 hPa
Pilvisyys: Melkein pilvistä
Näkyvyys: Enemmän kuin 10 km
Pilvitiedot: Melkein pilvistä 396 m
EFUT 080550Z AUTO 28009KT 9999 BKN013 00/M01 Q0984
EFVA - Vaasa, Finland
Etäisyys asemalta: Luode 180 km
Päivitetty: 08.12.2019 07:50
Selkeää  
Selkeää  
   Tuuli: Länsilounas 1.5 m/s
Tuuli: Länsilounas 1.5 m/s
Lämpötila: -2°C
Tuulen hyytävyys: -4°C
Kastepiste: -3°C
Kosteus: 93%
Ilmanpaine: 982 hPa
Näkyvyys: Enemmän kuin 10 km
Pilvitiedot: Selkeää
EFVA 080550Z AUTO 25003KT CAVOK M02/M03 Q0982
EFHK - Helsinki/Vantaa, Finland
Etäisyys asemalta: Etelä 191 km
Päivitetty: 08.12.2019 07:50
Heikkoja sadekuuroja, Lumisadetta, Sade, Melkein pilvistä  
Heikkoja sadekuuroja, Lumisadetta, Sade, Melkein pilvistä  
   Tuuli: Länsi 5.1 m/s
Tuuli: Länsi 5.1 m/s
Lämpötila: 1°C
Tuulen hyytävyys: -4°C
Kastepiste: -1°C
Kosteus: 87%
Ilmanpaine: 987 hPa
Pilvisyys: Melkein pilvistä
Näkyvyys: Enemmän kuin 10 km
Pilvitiedot: Vähäistä pilvisyyttä 427 m,
Melkein pilvistä 579 m
EFHK 080550Z 26010KT 9999 -SHSNRA FEW014 BKN019 01/M01 Q0987 NOSIG

Alkuperäinen skripti  Saratoga-weather.org Sovitettu myös templatelle  Weerstation Leuven

Laitteet joita käytämme:

Sääasema
Davis VP2

Sääasemaohjelma
Cumulus

Sääaseman palvelin
HP ProBook 6460b

Palveluntarjoaja
Radicenter

Davis VP2

Cumulus

HP ProBook 6460b

Radicenter




Flag Counter Cumulus Top Weather Sites